sensor_id;sensor_type;location;lat;lon;timestamp;P1;durP1;ratioP1;P2;durP2;ratioP2
7410;SDS011;3747;48.628;9.058;2022-10-13T00:02:12;65.20;;;33.47;;
7410;SDS011;3747;48.628;9.058;2022-10-13T00:04:39;74.87;;;36.30;;
7410;SDS011;3747;48.628;9.058;2022-10-13T00:07:05;69.47;;;35.07;;
7410;SDS011;3747;48.628;9.058;2022-10-13T00:09:32;73.73;;;35.50;;
7410;SDS011;3747;48.628;9.058;2022-10-13T00:11:59;74.97;;;34.80;;
7410;SDS011;3747;48.628;9.058;2022-10-13T00:14:26;69.03;;;35.77;;
7410;SDS011;3747;48.628;9.058;2022-10-13T00:16:54;76.93;;;37.10;;
7410;SDS011;3747;48.628;9.058;2022-10-13T00:19:20;71.53;;;35.33;;
7410;SDS011;3747;48.628;9.058;2022-10-13T00:21:47;78.13;;;37.53;;
7410;SDS011;3747;48.628;9.058;2022-10-13T00:24:14;89.47;;;38.47;;
7410;SDS011;3747;48.628;9.058;2022-10-13T00:26:40;84.17;;;37.83;;
7410;SDS011;3747;48.628;9.058;2022-10-13T00:29:07;88.67;;;38.33;;
7410;SDS011;3747;48.628;9.058;2022-10-13T00:31:34;67.23;;;34.57;;
7410;SDS011;3747;48.628;9.058;2022-10-13T00:34:02;75.83;;;36.70;;
7410;SDS011;3747;48.628;9.058;2022-10-13T00:36:28;70.77;;;36.00;;
7410;SDS011;3747;48.628;9.058;2022-10-13T00:38:56;73.10;;;35.53;;
7410;SDS011;3747;48.628;9.058;2022-10-13T00:41:23;76.87;;;34.67;;
7410;SDS011;3747;48.628;9.058;2022-10-13T00:43:54;69.40;;;33.90;;
7410;SDS011;3747;48.628;9.058;2022-10-13T00:46:24;73.13;;;34.10;;
7410;SDS011;3747;48.628;9.058;2022-10-13T00:48:52;71.23;;;33.30;;
7410;SDS011;3747;48.628;9.058;2022-10-13T00:51:23;63.67;;;32.40;;
7410;SDS011;3747;48.628;9.058;2022-10-13T00:53:52;63.17;;;31.83;;
7410;SDS011;3747;48.628;9.058;2022-10-13T00:56:20;59.50;;;30.37;;
7410;SDS011;3747;48.628;9.058;2022-10-13T00:58:48;71.27;;;33.03;;
7410;SDS011;3747;48.628;9.058;2022-10-13T01:01:16;60.13;;;32.40;;
7410;SDS011;3747;48.628;9.058;2022-10-13T01:03:43;65.97;;;32.17;;
7410;SDS011;3747;48.628;9.058;2022-10-13T01:06:10;67.90;;;32.47;;
7410;SDS011;3747;48.628;9.058;2022-10-13T01:08:39;71.97;;;32.30;;
7410;SDS011;3747;48.628;9.058;2022-10-13T01:11:11;62.37;;;32.67;;
7410;SDS011;3747;48.628;9.058;2022-10-13T01:13:49;66.00;;;33.37;;
7410;SDS011;3747;48.628;9.058;2022-10-13T01:16:22;68.07;;;32.90;;
7410;SDS011;3747;48.628;9.058;2022-10-13T01:18:59;69.67;;;33.20;;
7410;SDS011;3747;48.628;9.058;2022-10-13T01:21:34;68.73;;;34.00;;
7410;SDS011;3747;48.628;9.058;2022-10-13T01:24:12;72.97;;;33.87;;
7410;SDS011;3747;48.628;9.058;2022-10-13T01:27:04;68.90;;;34.47;;
7410;SDS011;3747;48.628;9.058;2022-10-13T01:29:45;70.27;;;34.40;;
7410;SDS011;3747;48.628;9.058;2022-10-13T01:32:35;74.67;;;32.10;;
7410;SDS011;3747;48.628;9.058;2022-10-13T01:35:23;64.10;;;32.27;;
7410;SDS011;3747;48.628;9.058;2022-10-13T01:38:00;69.43;;;32.83;;
7410;SDS011;3747;48.628;9.058;2022-10-13T01:40:33;68.07;;;31.47;;
7410;SDS011;3747;48.628;9.058;2022-10-13T01:43:06;63.57;;;31.07;;
7410;SDS011;3747;48.628;9.058;2022-10-13T01:45:37;65.50;;;32.40;;
7410;SDS011;3747;48.628;9.058;2022-10-13T01:48:07;71.00;;;32.80;;
7410;SDS011;3747;48.628;9.058;2022-10-13T01:50:35;74.20;;;32.47;;
7410;SDS011;3747;48.628;9.058;2022-10-13T01:53:03;67.67;;;31.07;;
7410;SDS011;3747;48.628;9.058;2022-10-13T01:55:31;75.63;;;33.70;;
7410;SDS011;3747;48.628;9.058;2022-10-13T01:57:57;73.30;;;30.33;;
7410;SDS011;3747;48.628;9.058;2022-10-13T02:00:24;63.50;;;32.23;;
7410;SDS011;3747;48.628;9.058;2022-10-13T02:02:57;61.47;;;31.27;;
7410;SDS011;3747;48.628;9.058;2022-10-13T02:05:32;60.80;;;29.70;;
7410;SDS011;3747;48.628;9.058;2022-10-13T02:08:07;65.10;;;32.10;;
7410;SDS011;3747;48.628;9.058;2022-10-13T02:10:39;62.77;;;31.20;;
7410;SDS011;3747;48.628;9.058;2022-10-13T02:13:13;56.47;;;30.13;;
7410;SDS011;3747;48.628;9.058;2022-10-13T02:15:43;62.97;;;29.53;;
7410;SDS011;3747;48.628;9.058;2022-10-13T02:18:14;54.90;;;30.93;;
7410;SDS011;3747;48.628;9.058;2022-10-13T02:20:44;63.60;;;29.30;;
7410;SDS011;3747;48.628;9.058;2022-10-13T02:23:12;61.87;;;30.73;;
7410;SDS011;3747;48.628;9.058;2022-10-13T02:25:40;53.67;;;28.83;;
7410;SDS011;3747;48.628;9.058;2022-10-13T02:28:08;55.20;;;29.03;;
7410;SDS011;3747;48.628;9.058;2022-10-13T02:30:37;60.43;;;31.17;;
7410;SDS011;3747;48.628;9.058;2022-10-13T02:33:05;59.33;;;29.67;;
7410;SDS011;3747;48.628;9.058;2022-10-13T02:35:34;52.93;;;29.03;;
7410;SDS011;3747;48.628;9.058;2022-10-13T02:38:01;54.93;;;28.30;;
7410;SDS011;3747;48.628;9.058;2022-10-13T02:40:28;58.47;;;29.17;;
7410;SDS011;3747;48.628;9.058;2022-10-13T02:42:54;51.57;;;28.10;;
7410;SDS011;3747;48.628;9.058;2022-10-13T02:45:21;51.47;;;27.70;;
7410;SDS011;3747;48.628;9.058;2022-10-13T02:47:48;57.53;;;29.07;;
7410;SDS011;3747;48.628;9.058;2022-10-13T02:50:15;45.57;;;25.90;;
7410;SDS011;3747;48.628;9.058;2022-10-13T02:52:43;49.23;;;27.97;;
7410;SDS011;3747;48.628;9.058;2022-10-13T02:55:10;44.03;;;25.53;;
7410;SDS011;3747;48.628;9.058;2022-10-13T02:57:37;50.33;;;26.27;;
7410;SDS011;3747;48.628;9.058;2022-10-13T03:00:04;46.30;;;26.23;;
7410;SDS011;3747;48.628;9.058;2022-10-13T03:02:33;43.20;;;25.87;;
7410;SDS011;3747;48.628;9.058;2022-10-13T03:04:59;44.60;;;26.17;;
7410;SDS011;3747;48.628;9.058;2022-10-13T03:07:26;42.13;;;24.17;;
7410;SDS011;3747;48.628;9.058;2022-10-13T03:09:54;43.87;;;25.17;;
7410;SDS011;3747;48.628;9.058;2022-10-13T03:12:21;42.77;;;23.47;;
7410;SDS011;3747;48.628;9.058;2022-10-13T03:14:48;41.80;;;22.97;;
7410;SDS011;3747;48.628;9.058;2022-10-13T03:17:14;37.60;;;22.93;;
7410;SDS011;3747;48.628;9.058;2022-10-13T03:19:41;39.60;;;23.37;;
7410;SDS011;3747;48.628;9.058;2022-10-13T03:22:08;41.60;;;23.00;;
7410;SDS011;3747;48.628;9.058;2022-10-13T03:24:38;39.27;;;22.50;;
7410;SDS011;3747;48.628;9.058;2022-10-13T03:27:06;38.17;;;21.77;;
7410;SDS011;3747;48.628;9.058;2022-10-13T03:29:33;39.97;;;23.70;;
7410;SDS011;3747;48.628;9.058;2022-10-13T03:32:00;42.03;;;25.23;;
7410;SDS011;3747;48.628;9.058;2022-10-13T03:34:26;40.93;;;23.60;;
7410;SDS011;3747;48.628;9.058;2022-10-13T03:36:53;36.50;;;22.53;;
7410;SDS011;3747;48.628;9.058;2022-10-13T03:39:20;37.73;;;25.30;;
7410;SDS011;3747;48.628;9.058;2022-10-13T03:41:47;35.23;;;20.83;;
7410;SDS011;3747;48.628;9.058;2022-10-13T03:44:15;36.33;;;21.70;;
7410;SDS011;3747;48.628;9.058;2022-10-13T03:46:41;29.27;;;20.27;;
7410;SDS011;3747;48.628;9.058;2022-10-13T03:49:08;28.83;;;19.63;;
7410;SDS011;3747;48.628;9.058;2022-10-13T03:51:36;31.90;;;19.57;;
7410;SDS011;3747;48.628;9.058;2022-10-13T03:54:03;29.03;;;19.13;;
7410;SDS011;3747;48.628;9.058;2022-10-13T03:56:30;31.50;;;19.63;;
7410;SDS011;3747;48.628;9.058;2022-10-13T03:58:57;33.23;;;19.43;;
7410;SDS011;3747;48.628;9.058;2022-10-13T04:01:27;26.63;;;18.50;;
7410;SDS011;3747;48.628;9.058;2022-10-13T04:03:55;28.20;;;19.07;;
7410;SDS011;3747;48.628;9.058;2022-10-13T04:06:23;31.70;;;19.60;;
7410;SDS011;3747;48.628;9.058;2022-10-13T04:08:50;34.20;;;20.07;;
7410;SDS011;3747;48.628;9.058;2022-10-13T04:11:18;28.93;;;19.50;;
7410;SDS011;3747;48.628;9.058;2022-10-13T04:13:46;26.20;;;18.30;;
7410;SDS011;3747;48.628;9.058;2022-10-13T04:16:13;30.03;;;18.10;;
7410;SDS011;3747;48.628;9.058;2022-10-13T04:18:43;29.40;;;18.03;;
7410;SDS011;3747;48.628;9.058;2022-10-13T04:21:11;29.90;;;18.50;;
7410;SDS011;3747;48.628;9.058;2022-10-13T04:23:39;28.03;;;20.07;;
7410;SDS011;3747;48.628;9.058;2022-10-13T04:26:06;34.67;;;19.80;;
7410;SDS011;3747;48.628;9.058;2022-10-13T04:28:39;33.90;;;20.57;;
7410;SDS011;3747;48.628;9.058;2022-10-13T04:31:06;36.73;;;20.20;;
7410;SDS011;3747;48.628;9.058;2022-10-13T04:33:32;37.50;;;21.93;;
7410;SDS011;3747;48.628;9.058;2022-10-13T04:36:03;43.03;;;22.77;;
7410;SDS011;3747;48.628;9.058;2022-10-13T04:38:30;37.90;;;23.17;;
7410;SDS011;3747;48.628;9.058;2022-10-13T04:40:57;36.00;;;21.30;;
7410;SDS011;3747;48.628;9.058;2022-10-13T04:43:24;38.77;;;22.47;;
7410;SDS011;3747;48.628;9.058;2022-10-13T04:45:50;36.30;;;21.70;;
7410;SDS011;3747;48.628;9.058;2022-10-13T04:48:17;43.33;;;22.37;;
7410;SDS011;3747;48.628;9.058;2022-10-13T04:50:44;35.77;;;21.17;;
7410;SDS011;3747;48.628;9.058;2022-10-13T04:53:12;36.27;;;20.37;;
7410;SDS011;3747;48.628;9.058;2022-10-13T04:55:38;34.87;;;21.80;;
7410;SDS011;3747;48.628;9.058;2022-10-13T04:58:05;40.87;;;22.10;;
7410;SDS011;3747;48.628;9.058;2022-10-13T05:00:32;47.97;;;22.17;;
7410;SDS011;3747;48.628;9.058;2022-10-13T05:02:58;43.23;;;21.80;;
7410;SDS011;3747;48.628;9.058;2022-10-13T05:05:25;45.17;;;23.20;;
7410;SDS011;3747;48.628;9.058;2022-10-13T05:07:52;42.40;;;23.00;;
7410;SDS011;3747;48.628;9.058;2022-10-13T05:10:20;44.47;;;25.03;;
7410;SDS011;3747;48.628;9.058;2022-10-13T05:12:47;44.13;;;23.77;;
7410;SDS011;3747;48.628;9.058;2022-10-13T05:15:13;48.27;;;25.90;;
7410;SDS011;3747;48.628;9.058;2022-10-13T05:17:40;49.07;;;26.60;;
7410;SDS011;3747;48.628;9.058;2022-10-13T05:20:07;53.40;;;25.50;;
7410;SDS011;3747;48.628;9.058;2022-10-13T05:22:35;51.17;;;25.33;;
7410;SDS011;3747;48.628;9.058;2022-10-13T05:25:02;61.27;;;27.20;;
7410;SDS011;3747;48.628;9.058;2022-10-13T05:27:30;58.37;;;27.07;;
7410;SDS011;3747;48.628;9.058;2022-10-13T05:29:57;62.63;;;29.53;;
7410;SDS011;3747;48.628;9.058;2022-10-13T05:32:24;60.97;;;29.27;;
7410;SDS011;3747;48.628;9.058;2022-10-13T05:34:50;60.77;;;28.20;;
7410;SDS011;3747;48.628;9.058;2022-10-13T05:37:17;68.40;;;28.57;;
7410;SDS011;3747;48.628;9.058;2022-10-13T05:39:46;64.20;;;29.37;;
7410;SDS011;3747;48.628;9.058;2022-10-13T05:42:13;68.87;;;30.83;;
7410;SDS011;3747;48.628;9.058;2022-10-13T05:44:41;70.30;;;29.33;;
7410;SDS011;3747;48.628;9.058;2022-10-13T05:47:08;71.27;;;30.17;;
7410;SDS011;3747;48.628;9.058;2022-10-13T05:49:35;76.13;;;33.17;;
7410;SDS011;3747;48.628;9.058;2022-10-13T05:52:04;78.60;;;32.20;;
7410;SDS011;3747;48.628;9.058;2022-10-13T05:54:34;78.80;;;32.00;;
7410;SDS011;3747;48.628;9.058;2022-10-13T05:57:03;74.20;;;32.20;;
7410;SDS011;3747;48.628;9.058;2022-10-13T05:59:36;77.60;;;32.77;;
7410;SDS011;3747;48.628;9.058;2022-10-13T06:02:08;70.50;;;30.57;;
7410;SDS011;3747;48.628;9.058;2022-10-13T06:04:40;68.07;;;31.07;;
7410;SDS011;3747;48.628;9.058;2022-10-13T06:07:10;72.43;;;30.47;;
7410;SDS011;3747;48.628;9.058;2022-10-13T06:09:38;65.00;;;29.93;;
7410;SDS011;3747;48.628;9.058;2022-10-13T06:12:07;67.90;;;28.73;;
7410;SDS011;3747;48.628;9.058;2022-10-13T06:14:34;61.73;;;29.70;;
7410;SDS011;3747;48.628;9.058;2022-10-13T06:17:01;59.43;;;29.50;;
7410;SDS011;3747;48.628;9.058;2022-10-13T06:19:29;53.17;;;26.97;;
7410;SDS011;3747;48.628;9.058;2022-10-13T06:21:57;55.97;;;28.07;;
7410;SDS011;3747;48.628;9.058;2022-10-13T06:24:23;49.57;;;27.30;;
7410;SDS011;3747;48.628;9.058;2022-10-13T06:26:50;47.03;;;27.10;;
7410;SDS011;3747;48.628;9.058;2022-10-13T06:29:17;43.57;;;23.87;;
7410;SDS011;3747;48.628;9.058;2022-10-13T06:31:44;46.50;;;23.93;;
7410;SDS011;3747;48.628;9.058;2022-10-13T06:34:11;48.43;;;23.87;;
7410;SDS011;3747;48.628;9.058;2022-10-13T06:36:39;42.97;;;23.53;;
7410;SDS011;3747;48.628;9.058;2022-10-13T06:39:06;42.37;;;22.37;;
7410;SDS011;3747;48.628;9.058;2022-10-13T06:41:34;39.67;;;23.33;;
7410;SDS011;3747;48.628;9.058;2022-10-13T06:44:01;43.07;;;21.67;;
7410;SDS011;3747;48.628;9.058;2022-10-13T06:46:28;38.47;;;21.13;;
7410;SDS011;3747;48.628;9.058;2022-10-13T06:48:54;31.63;;;18.90;;
7410;SDS011;3747;48.628;9.058;2022-10-13T06:51:21;34.53;;;19.80;;
7410;SDS011;3747;48.628;9.058;2022-10-13T06:53:49;37.23;;;18.97;;
7410;SDS011;3747;48.628;9.058;2022-10-13T06:56:16;29.90;;;17.37;;
7410;SDS011;3747;48.628;9.058;2022-10-13T06:58:43;28.77;;;16.97;;
7410;SDS011;3747;48.628;9.058;2022-10-13T07:01:11;29.53;;;16.93;;
7410;SDS011;3747;48.628;9.058;2022-10-13T07:03:38;25.20;;;16.00;;
7410;SDS011;3747;48.628;9.058;2022-10-13T07:06:06;26.83;;;16.00;;
7410;SDS011;3747;48.628;9.058;2022-10-13T07:08:33;24.90;;;15.30;;
7410;SDS011;3747;48.628;9.058;2022-10-13T07:11:06;21.83;;;14.30;;
7410;SDS011;3747;48.628;9.058;2022-10-13T07:13:33;23.37;;;14.37;;
7410;SDS011;3747;48.628;9.058;2022-10-13T07:16:01;24.40;;;14.13;;
7410;SDS011;3747;48.628;9.058;2022-10-13T07:18:28;22.97;;;14.20;;
7410;SDS011;3747;48.628;9.058;2022-10-13T07:20:56;23.33;;;15.13;;
7410;SDS011;3747;48.628;9.058;2022-10-13T07:23:23;22.43;;;13.70;;
7410;SDS011;3747;48.628;9.058;2022-10-13T07:25:50;19.70;;;12.83;;
7410;SDS011;3747;48.628;9.058;2022-10-13T07:28:18;22.50;;;13.80;;
7410;SDS011;3747;48.628;9.058;2022-10-13T07:30:45;24.90;;;13.80;;
7410;SDS011;3747;48.628;9.058;2022-10-13T07:33:11;22.30;;;14.50;;
7410;SDS011;3747;48.628;9.058;2022-10-13T07:35:38;18.50;;;12.23;;
7410;SDS011;3747;48.628;9.058;2022-10-13T07:38:05;16.83;;;11.40;;
7410;SDS011;3747;48.628;9.058;2022-10-13T07:40:32;19.70;;;14.00;;
7410;SDS011;3747;48.628;9.058;2022-10-13T07:43:00;15.33;;;11.97;;
7410;SDS011;3747;48.628;9.058;2022-10-13T07:45:28;16.27;;;12.10;;
7410;SDS011;3747;48.628;9.058;2022-10-13T07:47:55;17.40;;;12.30;;
7410;SDS011;3747;48.628;9.058;2022-10-13T07:50:21;16.33;;;11.03;;
7410;SDS011;3747;48.628;9.058;2022-10-13T07:52:48;15.63;;;11.40;;
7410;SDS011;3747;48.628;9.058;2022-10-13T07:55:15;16.40;;;10.77;;
7410;SDS011;3747;48.628;9.058;2022-10-13T07:57:42;15.30;;;10.03;;
7410;SDS011;3747;48.628;9.058;2022-10-13T08:00:09;17.27;;;10.77;;
7410;SDS011;3747;48.628;9.058;2022-10-13T08:02:38;20.00;;;10.90;;
7410;SDS011;3747;48.628;9.058;2022-10-13T08:05:04;12.67;;;8.93;;
7410;SDS011;3747;48.628;9.058;2022-10-13T08:07:32;16.97;;;9.67;;
7410;SDS011;3747;48.628;9.058;2022-10-13T08:09:59;15.00;;;10.20;;
7410;SDS011;3747;48.628;9.058;2022-10-13T08:12:26;15.70;;;9.40;;
7410;SDS011;3747;48.628;9.058;2022-10-13T08:14:52;13.00;;;8.53;;
7410;SDS011;3747;48.628;9.058;2022-10-13T08:17:19;13.40;;;8.67;;
7410;SDS011;3747;48.628;9.058;2022-10-13T08:19:49;11.97;;;8.37;;
7410;SDS011;3747;48.628;9.058;2022-10-13T08:22:16;12.37;;;8.60;;
7410;SDS011;3747;48.628;9.058;2022-10-13T08:24:46;12.43;;;7.80;;
7410;SDS011;3747;48.628;9.058;2022-10-13T08:27:14;14.13;;;7.83;;
7410;SDS011;3747;48.628;9.058;2022-10-13T08:29:44;10.87;;;8.03;;
7410;SDS011;3747;48.628;9.058;2022-10-13T08:32:11;9.33;;;7.50;;
7410;SDS011;3747;48.628;9.058;2022-10-13T08:34:38;10.00;;;6.97;;
7410;SDS011;3747;48.628;9.058;2022-10-13T08:37:10;12.23;;;6.50;;
7410;SDS011;3747;48.628;9.058;2022-10-13T08:39:38;9.40;;;6.63;;
7410;SDS011;3747;48.628;9.058;2022-10-13T08:42:10;10.10;;;6.93;;
7410;SDS011;3747;48.628;9.058;2022-10-13T08:44:40;9.33;;;6.30;;
7410;SDS011;3747;48.628;9.058;2022-10-13T08:47:11;12.10;;;7.30;;
7410;SDS011;3747;48.628;9.058;2022-10-13T08:49:44;9.80;;;6.50;;
7410;SDS011;3747;48.628;9.058;2022-10-13T08:52:15;12.43;;;6.83;;
7410;SDS011;3747;48.628;9.058;2022-10-13T08:54:44;11.07;;;7.00;;
7410;SDS011;3747;48.628;9.058;2022-10-13T08:57:11;7.73;;;5.70;;
7410;SDS011;3747;48.628;9.058;2022-10-13T08:59:38;9.90;;;6.10;;
7410;SDS011;3747;48.628;9.058;2022-10-13T09:02:08;11.17;;;6.10;;
7410;SDS011;3747;48.628;9.058;2022-10-13T09:04:39;7.23;;;5.80;;
7410;SDS011;3747;48.628;9.058;2022-10-13T09:07:09;8.23;;;6.57;;
7410;SDS011;3747;48.628;9.058;2022-10-13T09:09:40;8.13;;;6.23;;
7410;SDS011;3747;48.628;9.058;2022-10-13T09:12:08;9.47;;;6.87;;
7410;SDS011;3747;48.628;9.058;2022-10-13T09:14:37;11.67;;;6.73;;
7410;SDS011;3747;48.628;9.058;2022-10-13T09:17:12;11.57;;;5.93;;
7410;SDS011;3747;48.628;9.058;2022-10-13T09:19:42;14.37;;;6.53;;
7410;SDS011;3747;48.628;9.058;2022-10-13T09:22:14;9.57;;;6.27;;
7410;SDS011;3747;48.628;9.058;2022-10-13T09:24:52;9.13;;;5.90;;
7410;SDS011;3747;48.628;9.058;2022-10-13T09:27:43;7.73;;;6.30;;
7410;SDS011;3747;48.628;9.058;2022-10-13T09:30:23;11.00;;;6.37;;
7410;SDS011;3747;48.628;9.058;2022-10-13T09:32:55;12.70;;;6.90;;
7410;SDS011;3747;48.628;9.058;2022-10-13T09:35:31;10.13;;;6.93;;
7410;SDS011;3747;48.628;9.058;2022-10-13T09:38:02;11.00;;;6.77;;
7410;SDS011;3747;48.628;9.058;2022-10-13T09:40:30;10.20;;;6.67;;
7410;SDS011;3747;48.628;9.058;2022-10-13T09:43:05;9.83;;;6.20;;
7410;SDS011;3747;48.628;9.058;2022-10-13T09:45:50;11.00;;;6.37;;
7410;SDS011;3747;48.628;9.058;2022-10-13T09:48:19;11.87;;;6.47;;
7410;SDS011;3747;48.628;9.058;2022-10-13T09:50:49;10.87;;;6.50;;
7410;SDS011;3747;48.628;9.058;2022-10-13T09:53:30;13.40;;;7.53;;
7410;SDS011;3747;48.628;9.058;2022-10-13T09:56:17;9.87;;;7.43;;
7410;SDS011;3747;48.628;9.058;2022-10-13T09:58:49;11.13;;;7.47;;
7410;SDS011;3747;48.628;9.058;2022-10-13T10:01:29;11.10;;;7.13;;
7410;SDS011;3747;48.628;9.058;2022-10-13T10:04:00;13.77;;;6.93;;
7410;SDS011;3747;48.628;9.058;2022-10-13T10:06:31;9.27;;;7.47;;
7410;SDS011;3747;48.628;9.058;2022-10-13T10:09:00;15.07;;;8.40;;
7410;SDS011;3747;48.628;9.058;2022-10-13T10:11:38;13.03;;;7.63;;
7410;SDS011;3747;48.628;9.058;2022-10-13T10:14:11;11.50;;;7.33;;
7410;SDS011;3747;48.628;9.058;2022-10-13T10:19:33;12.48;;;8.50;;
7410;SDS011;3747;48.628;9.058;2022-10-13T10:22:12;9.50;;;7.17;;
7410;SDS011;3747;48.628;9.058;2022-10-13T10:24:47;10.83;;;7.10;;
7410;SDS011;3747;48.628;9.058;2022-10-13T10:27:22;10.27;;;6.47;;
7410;SDS011;3747;48.628;9.058;2022-10-13T10:29:54;10.53;;;6.77;;
7410;SDS011;3747;48.628;9.058;2022-10-13T10:32:32;8.73;;;6.10;;
7410;SDS011;3747;48.628;9.058;2022-10-13T10:35:10;9.93;;;6.03;;
7410;SDS011;3747;48.628;9.058;2022-10-13T10:37:46;10.33;;;7.07;;
7410;SDS011;3747;48.628;9.058;2022-10-13T10:40:30;12.40;;;7.13;;
7410;SDS011;3747;48.628;9.058;2022-10-13T10:43:16;8.00;;;5.90;;
7410;SDS011;3747;48.628;9.058;2022-10-13T10:45:56;10.50;;;6.10;;
7410;SDS011;3747;48.628;9.058;2022-10-13T10:48:25;6.17;;;5.57;;
7410;SDS011;3747;48.628;9.058;2022-10-13T10:50:55;8.27;;;6.20;;
7410;SDS011;3747;48.628;9.058;2022-10-13T10:53:25;9.10;;;6.30;;
7410;SDS011;3747;48.628;9.058;2022-10-13T10:55:59;7.20;;;5.80;;
7410;SDS011;3747;48.628;9.058;2022-10-13T10:58:36;8.60;;;6.77;;
7410;SDS011;3747;48.628;9.058;2022-10-13T11:01:13;9.27;;;6.27;;
7410;SDS011;3747;48.628;9.058;2022-10-13T11:03:53;9.23;;;5.67;;
7410;SDS011;3747;48.628;9.058;2022-10-13T11:06:30;10.47;;;5.77;;
7410;SDS011;3747;48.628;9.058;2022-10-13T11:08:59;8.20;;;5.50;;
7410;SDS011;3747;48.628;9.058;2022-10-13T11:11:34;9.03;;;6.07;;
7410;SDS011;3747;48.628;9.058;2022-10-13T11:14:22;10.83;;;5.53;;
7410;SDS011;3747;48.628;9.058;2022-10-13T11:17:10;6.57;;;5.60;;
7410;SDS011;3747;48.628;9.058;2022-10-13T11:19:42;11.70;;;5.97;;
7410;SDS011;3747;48.628;9.058;2022-10-13T11:22:14;8.90;;;5.57;;
7410;SDS011;3747;48.628;9.058;2022-10-13T11:24:46;7.77;;;4.90;;
7410;SDS011;3747;48.628;9.058;2022-10-13T11:27:18;7.83;;;5.67;;
7410;SDS011;3747;48.628;9.058;2022-10-13T11:29:53;8.00;;;5.87;;
7410;SDS011;3747;48.628;9.058;2022-10-13T11:32:41;6.70;;;6.00;;
7410;SDS011;3747;48.628;9.058;2022-10-13T11:35:20;6.63;;;5.60;;
7410;SDS011;3747;48.628;9.058;2022-10-13T11:38:02;10.77;;;6.10;;
7410;SDS011;3747;48.628;9.058;2022-10-13T11:40:44;7.27;;;5.50;;
7410;SDS011;3747;48.628;9.058;2022-10-13T11:43:30;11.47;;;5.80;;
7410;SDS011;3747;48.628;9.058;2022-10-13T11:46:08;7.20;;;5.27;;
7410;SDS011;3747;48.628;9.058;2022-10-13T11:52:02;8.03;;;5.90;;
7410;SDS011;3747;48.628;9.058;2022-10-13T11:54:39;9.00;;;5.30;;
7410;SDS011;3747;48.628;9.058;2022-10-13T11:57:19;8.47;;;5.90;;
7410;SDS011;3747;48.628;9.058;2022-10-13T11:59:48;7.90;;;4.93;;
7410;SDS011;3747;48.628;9.058;2022-10-13T12:02:22;7.20;;;5.50;;
7410;SDS011;3747;48.628;9.058;2022-10-13T12:05:01;7.67;;;4.97;;
7410;SDS011;3747;48.628;9.058;2022-10-13T12:07:31;6.40;;;4.93;;
7410;SDS011;3747;48.628;9.058;2022-10-13T12:10:00;7.07;;;5.50;;
7410;SDS011;3747;48.628;9.058;2022-10-13T12:12:31;7.70;;;5.77;;
7410;SDS011;3747;48.628;9.058;2022-10-13T12:14:57;8.63;;;6.60;;
7410;SDS011;3747;48.628;9.058;2022-10-13T12:17:28;9.60;;;5.13;;
7410;SDS011;3747;48.628;9.058;2022-10-13T12:19:56;7.93;;;5.70;;
7410;SDS011;3747;48.628;9.058;2022-10-13T12:22:25;6.13;;;4.83;;
7410;SDS011;3747;48.628;9.058;2022-10-13T12:24:56;6.93;;;5.50;;
7410;SDS011;3747;48.628;9.058;2022-10-13T12:27:24;9.00;;;5.57;;
7410;SDS011;3747;48.628;9.058;2022-10-13T12:29:52;6.53;;;5.43;;
7410;SDS011;3747;48.628;9.058;2022-10-13T12:32:20;7.83;;;5.13;;
7410;SDS011;3747;48.628;9.058;2022-10-13T12:34:49;6.40;;;4.77;;
7410;SDS011;3747;48.628;9.058;2022-10-13T12:37:20;7.83;;;5.03;;
7410;SDS011;3747;48.628;9.058;2022-10-13T12:39:52;6.57;;;4.83;;
7410;SDS011;3747;48.628;9.058;2022-10-13T12:42:26;7.60;;;4.80;;
7410;SDS011;3747;48.628;9.058;2022-10-13T12:44:55;5.37;;;4.43;;
7410;SDS011;3747;48.628;9.058;2022-10-13T12:47:36;7.70;;;4.93;;
7410;SDS011;3747;48.628;9.058;2022-10-13T12:55:55;4.80;;;4.30;;
7410;SDS011;3747;48.628;9.058;2022-10-13T12:58:25;6.97;;;4.47;;
7410;SDS011;3747;48.628;9.058;2022-10-13T13:00:55;9.27;;;4.17;;
7410;SDS011;3747;48.628;9.058;2022-10-13T13:03:25;6.37;;;3.90;;
7410;SDS011;3747;48.628;9.058;2022-10-13T13:06:07;5.97;;;4.07;;
7410;SDS011;3747;48.628;9.058;2022-10-13T13:08:45;6.40;;;4.43;;
7410;SDS011;3747;48.628;9.058;2022-10-13T13:11:18;8.83;;;4.40;;
7410;SDS011;3747;48.628;9.058;2022-10-13T13:13:47;9.00;;;4.90;;
7410;SDS011;3747;48.628;9.058;2022-10-13T13:16:14;6.83;;;4.50;;
7410;SDS011;3747;48.628;9.058;2022-10-13T13:18:42;6.40;;;4.23;;
7410;SDS011;3747;48.628;9.058;2022-10-13T13:21:12;7.13;;;5.17;;
7410;SDS011;3747;48.628;9.058;2022-10-13T13:23:41;8.40;;;5.10;;
7410;SDS011;3747;48.628;9.058;2022-10-13T13:26:10;7.17;;;4.90;;
7410;SDS011;3747;48.628;9.058;2022-10-13T13:28:39;10.67;;;5.00;;
7410;SDS011;3747;48.628;9.058;2022-10-13T13:31:09;6.20;;;4.43;;
7410;SDS011;3747;48.628;9.058;2022-10-13T13:33:36;8.53;;;5.50;;
7410;SDS011;3747;48.628;9.058;2022-10-13T13:36:03;7.33;;;5.10;;
7410;SDS011;3747;48.628;9.058;2022-10-13T13:38:36;10.27;;;4.97;;
7410;SDS011;3747;48.628;9.058;2022-10-13T13:41:03;8.80;;;4.67;;
7410;SDS011;3747;48.628;9.058;2022-10-13T13:43:30;6.67;;;4.73;;
7410;SDS011;3747;48.628;9.058;2022-10-13T13:45:56;6.57;;;4.40;;
7410;SDS011;3747;48.628;9.058;2022-10-13T13:48:23;8.87;;;5.40;;
7410;SDS011;3747;48.628;9.058;2022-10-13T13:50:50;9.07;;;5.00;;
7410;SDS011;3747;48.628;9.058;2022-10-13T13:53:17;6.87;;;4.87;;
7410;SDS011;3747;48.628;9.058;2022-10-13T13:55:45;8.13;;;4.87;;
7410;SDS011;3747;48.628;9.058;2022-10-13T13:58:12;7.73;;;4.90;;
7410;SDS011;3747;48.628;9.058;2022-10-13T14:00:40;5.60;;;4.87;;
7410;SDS011;3747;48.628;9.058;2022-10-13T14:03:07;6.20;;;4.60;;
7410;SDS011;3747;48.628;9.058;2022-10-13T14:05:37;9.73;;;4.70;;
7410;SDS011;3747;48.628;9.058;2022-10-13T14:08:03;6.77;;;3.90;;
7410;SDS011;3747;48.628;9.058;2022-10-13T14:10:30;7.40;;;4.50;;
7410;SDS011;3747;48.628;9.058;2022-10-13T14:12:58;6.67;;;4.03;;
7410;SDS011;3747;48.628;9.058;2022-10-13T14:15:25;6.07;;;3.93;;
7410;SDS011;3747;48.628;9.058;2022-10-13T14:17:52;7.20;;;4.70;;
7410;SDS011;3747;48.628;9.058;2022-10-13T14:20:20;5.57;;;4.10;;
7410;SDS011;3747;48.628;9.058;2022-10-13T14:22:47;8.33;;;4.07;;
7410;SDS011;3747;48.628;9.058;2022-10-13T14:25:13;6.57;;;3.77;;
7410;SDS011;3747;48.628;9.058;2022-10-13T14:27:40;5.93;;;4.00;;
7410;SDS011;3747;48.628;9.058;2022-10-13T14:30:11;4.60;;;3.60;;
7410;SDS011;3747;48.628;9.058;2022-10-13T14:32:39;9.63;;;4.30;;
7410;SDS011;3747;48.628;9.058;2022-10-13T14:35:06;8.17;;;3.77;;
7410;SDS011;3747;48.628;9.058;2022-10-13T14:37:33;5.47;;;3.83;;
7410;SDS011;3747;48.628;9.058;2022-10-13T14:40:00;8.53;;;3.83;;
7410;SDS011;3747;48.628;9.058;2022-10-13T14:42:27;6.63;;;3.87;;
7410;SDS011;3747;48.628;9.058;2022-10-13T14:44:53;6.30;;;4.30;;
7410;SDS011;3747;48.628;9.058;2022-10-13T14:47:22;8.80;;;4.53;;
7410;SDS011;3747;48.628;9.058;2022-10-13T14:49:48;5.93;;;4.33;;
7410;SDS011;3747;48.628;9.058;2022-10-13T14:52:15;6.87;;;4.40;;
7410;SDS011;3747;48.628;9.058;2022-10-13T14:54:42;5.30;;;4.43;;
7410;SDS011;3747;48.628;9.058;2022-10-13T14:57:08;8.33;;;4.43;;
7410;SDS011;3747;48.628;9.058;2022-10-13T14:59:39;6.67;;;3.70;;
7410;SDS011;3747;48.628;9.058;2022-10-13T15:02:07;7.80;;;3.90;;
7410;SDS011;3747;48.628;9.058;2022-10-13T15:04:35;5.37;;;3.93;;
7410;SDS011;3747;48.628;9.058;2022-10-13T15:07:02;7.53;;;3.50;;
7410;SDS011;3747;48.628;9.058;2022-10-13T15:09:29;4.87;;;4.03;;
7410;SDS011;3747;48.628;9.058;2022-10-13T15:11:56;6.20;;;3.77;;
7410;SDS011;3747;48.628;9.058;2022-10-13T15:14:23;6.10;;;3.07;;
7410;SDS011;3747;48.628;9.058;2022-10-13T15:16:50;12.87;;;5.27;;
7410;SDS011;3747;48.628;9.058;2022-10-13T15:19:17;6.00;;;3.40;;
7410;SDS011;3747;48.628;9.058;2022-10-13T15:21:45;4.03;;;3.20;;
7410;SDS011;3747;48.628;9.058;2022-10-13T15:24:12;7.77;;;4.00;;
7410;SDS011;3747;48.628;9.058;2022-10-13T15:26:39;8.33;;;3.60;;